Time;durP1;ratioP1;P1;durP2;ratioP2;P2;SDS_P1;SDS_P2;PMS_P1;PMS_P2;Temp;Humidity;BMP_temperature;BMP_pressure;BME280_temperature;BME280_humidity;BME280_pressure;Samples;Min_cycle;Max_cycle;Signal;HPM_P1;HPM_P2
2023/09/01 00:02:24;;;;;;;7.97;5.47;;;;;;;-141.97;61.43;47299.97;5033497;28;20187;-83
2023/09/01 00:04:49;;;;;;;9.27;5.40;;;;;;;-141.97;61.51;47586.34;5031253;28;20185;-83
2023/09/01 00:07:15;;;;;;;10.27;5.40;;;;;;;-141.97;61.94;47349.94;5031258;28;20259;-83
2023/09/01 00:09:40;;;;;;;11.77;5.60;;;;;;;-141.97;61.72;47636.31;5031088;28;20599;-83
2023/09/01 00:12:06;;;;;;;8.53;5.33;;;;;;;-141.97;60.97;47398.00;5029771;28;20228;-82
2023/09/01 00:14:31;;;;;;;9.80;5.47;;;;;;;-141.97;60.57;47622.88;5029335;28;20738;-81
2023/09/01 00:16:57;;;;;;;8.80;5.53;;;;;;;-141.97;60.54;47421.06;5029683;28;20741;-82
2023/09/01 00:19:23;;;;;;;10.30;5.63;;;;;;;-141.97;59.78;47438.34;5029672;28;20170;-82
2023/09/01 00:21:49;;;;;;;8.37;5.30;;;;;;;-141.97;59.81;47374.94;5030808;28;20618;-81
2023/09/01 00:24:15;;;;;;;7.80;5.27;;;;;;;-141.97;59.69;47544.06;5029793;28;20165;-81
2023/09/01 00:26:40;;;;;;;9.80;5.50;;;;;;;-141.97;60.24;47401.84;5031465;28;20551;-81
2023/09/01 00:29:06;;;;;;;7.23;5.50;;;;;;;-141.97;61.45;47463.34;5029787;28;20247;-81
2023/09/01 00:31:33;;;;;;;7.63;5.03;;;;;;;-141.97;61.74;47407.59;5029277;28;20264;-81
2023/09/01 00:33:59;;;;;;;7.33;5.17;;;;;;;-141.97;62.35;47374.94;5028542;28;20954;-81
2023/09/01 00:36:24;;;;;;;11.37;5.33;;;;;;;-141.97;63.43;47640.16;5030494;28;20177;-81
2023/09/01 00:38:50;;;;;;;8.67;5.33;;;;;;;-141.97;61.54;47642.09;5029790;28;20177;-81
2023/09/01 00:41:15;;;;;;;9.00;4.77;;;;;;;-141.97;60.46;47426.81;5030271;28;20173;-83
2023/09/01 00:43:40;;;;;;;6.93;4.53;;;;;;;-141.97;59.70;47384.53;5029291;28;20228;-82
2023/09/01 00:46:06;;;;;;;8.77;4.83;;;;;;;-141.97;60.31;47380.69;5029150;28;20174;-82
2023/09/01 00:48:31;;;;;;;6.87;4.57;;;;;;;-141.97;60.02;47424.91;5029635;28;20206;-82
2023/09/01 00:50:57;;;;;;;6.63;4.70;;;;;;;-141.97;59.67;47394.16;5029277;28;20247;-82
2023/09/01 00:53:23;;;;;;;7.67;5.30;;;;;;;-141.97;59.77;47440.28;5040599;28;20692;-81
2023/09/01 00:55:51;;;;;;;9.53;4.90;;;;;;;-141.97;59.69;47380.69;5038112;28;20261;-82
2023/09/01 00:58:17;;;;;;;7.90;5.27;;;;;;;-141.97;59.97;47599.81;5029415;28;20665;-82
2023/09/01 01:00:42;;;;;;;7.23;4.90;;;;;;;-141.97;59.92;47461.41;5029872;28;20526;-81
2023/09/01 01:03:10;;;;;;;6.90;4.67;;;;;;;-141.97;59.90;47419.13;5028247;28;20174;-82
2023/09/01 01:05:43;;;;;;;7.43;4.70;;;;;;;-141.97;60.01;47426.81;5029149;28;20186;-82
2023/09/01 01:08:18;;;;;;;7.37;4.80;;;;;;;-141.97;60.39;47424.91;5031124;28;20194;-82
2023/09/01 01:10:57;;;;;;;7.67;4.83;;;;;;;-141.97;60.19;47432.59;5031523;28;20216;-82
2023/09/01 01:13:28;;;;;;;6.43;4.57;;;;;;;-141.97;60.03;47422.97;5032326;28;20909;-82
2023/09/01 01:15:57;;;;;;;6.43;4.93;;;;;;;-141.97;59.89;47595.97;5032727;28;20173;-82
2023/09/01 01:18:24;;;;;;;7.63;5.13;;;;;;;-141.97;59.98;47438.34;5032732;28;20170;-82
2023/09/01 01:20:55;;;;;;;8.43;5.13;;;;;;;-141.97;59.71;47444.13;5032228;28;20210;-83
2023/09/01 01:23:22;;;;;;;7.77;5.17;;;;;;;-141.97;59.80;47330.72;5032282;28;20172;-83
2023/09/01 01:25:49;;;;;;;7.87;4.60;;;;;;;-141.97;59.75;47426.81;5033927;28;20166;-83
2023/09/01 01:28:15;;;;;;;8.33;5.10;;;;;;;-141.97;59.77;47563.28;5033983;28;20542;-84
2023/09/01 01:30:41;;;;;;;8.50;5.40;;;;;;;-141.97;60.32;47405.69;5033849;28;20194;-83
2023/09/01 01:33:22;;;;;;;10.80;5.13;;;;;;;-141.97;60.80;47444.13;5032248;28;20588;-83
2023/09/01 01:36:03;;;;;;;9.17;5.37;;;;;;;-141.97;61.91;47449.88;5032104;28;20169;-83
2023/09/01 01:38:30;;;;;;;9.27;5.67;;;;;;;-141.97;62.59;47469.09;5032071;28;20645;-84
2023/09/01 01:41:14;;;;;;;10.23;5.33;;;;;;;-141.97;62.95;47428.75;5033724;28;20584;-82
2023/09/01 01:43:42;;;;;;;12.03;5.37;;;;;;;-141.97;63.67;47357.63;5031226;28;20233;-82
2023/09/01 01:46:08;;;;;;;8.70;5.60;;;;;;;-141.97;63.18;47399.91;5034629;28;20570;-82
2023/09/01 01:48:39;;;;;;;10.60;6.07;;;;;;;-141.97;63.21;47446.03;5034215;28;20169;-83
2023/09/01 01:51:07;;;;;;;8.50;5.70;;;;;;;-141.97;63.04;47319.19;5032850;28;20267;-82
2023/09/01 01:53:37;;;;;;;8.93;5.90;;;;;;;-141.97;62.47;47465.25;5033652;28;20380;-82
2023/09/01 01:56:05;;;;;;;9.40;6.00;;;;;;;-141.97;61.88;47430.66;5033136;28;20182;-82
2023/09/01 01:58:31;;;;;;;10.13;6.00;;;;;;;-141.97;61.66;47388.38;5032449;28;20216;-83
2023/09/01 02:00:56;;;;;;;9.80;6.17;;;;;;;-141.97;61.02;47380.69;5033737;28;20554;-81
2023/09/01 02:03:22;;;;;;;7.40;5.73;;;;;;;-141.97;61.71;47617.09;5035032;28;20590;-81
2023/09/01 02:05:47;;;;;;;8.07;6.00;;;;;;;-141.97;62.92;47386.47;5034577;28;20250;-81
2023/09/01 02:08:13;;;;;;;13.33;6.50;;;;;;;-141.97;62.32;47465.25;5041570;28;20146;-81
2023/09/01 02:10:38;;;;;;;10.17;6.93;;;;;;;-141.97;61.83;47469.09;5049041;28;20170;-82
2023/09/01 02:13:04;;;;;;;8.67;5.70;;;;;;;-141.97;61.80;47361.47;5034493;28;20272;-81
2023/09/01 02:15:30;;;;;;;7.93;5.60;;;;;;;-141.97;61.91;47607.50;5032796;28;20186;-82
2023/09/01 02:17:57;;;;;;;9.37;5.47;;;;;;;-141.97;62.64;47388.38;5033157;28;20181;-82
2023/09/01 02:20:23;;;;;;;8.20;5.60;;;;;;;-141.97;62.37;47426.81;5031776;28;20265;-81
2023/09/01 02:22:50;;;;;;;8.43;5.63;;;;;;;-141.97;62.14;47453.72;5031955;28;20247;-81
2023/09/01 02:25:16;;;;;;;9.63;5.50;;;;;;;-141.97;62.38;47392.22;5032418;28;20170;-81
2023/09/01 02:27:43;;;;;;;8.97;5.20;;;;;;;-141.97;62.33;47465.25;5033131;28;20598;-80
2023/09/01 02:30:10;;;;;;;8.40;5.20;;;;;;;-141.97;62.26;47469.09;5033152;28;20661;-80
2023/09/01 02:32:37;;;;;;;10.53;5.00;;;;;;;-141.97;61.65;47426.81;5032302;28;20193;-80
2023/09/01 02:35:06;;;;;;;8.90;5.40;;;;;;;-141.97;61.41;47463.34;5030709;28;20190;-81
2023/09/01 02:37:35;;;;;;;7.63;4.80;;;;;;;-141.97;61.08;47446.03;5032752;28;20587;-80
2023/09/01 02:40:01;;;;;;;7.37;4.93;;;;;;;-141.97;60.99;47453.72;5031133;28;20630;-81
2023/09/01 02:42:27;;;;;;;13.97;7.93;;;;;;;-141.97;61.45;47447.97;5032270;28;20221;-80
2023/09/01 02:44:53;;;;;;;10.57;5.80;;;;;;;-141.97;61.92;47434.50;5031726;28;20178;-81
2023/09/01 02:47:18;;;;;;;9.97;5.67;;;;;;;-141.97;61.73;47613.25;5032626;28;20177;-80
2023/09/01 02:49:44;;;;;;;7.07;4.90;;;;;;;-141.97;61.63;47465.25;5032388;28;20174;-81
2023/09/01 02:52:09;;;;;;;9.80;5.33;;;;;;;-141.97;62.26;47496.00;5031271;28;20285;-82
2023/09/01 02:54:35;;;;;;;8.83;5.70;;;;;;;-141.97;62.66;47424.91;5031447;28;20204;-82
2023/09/01 02:57:00;;;;;;;9.20;5.30;;;;;;;-141.97;63.50;47330.72;5032892;28;20174;-82
2023/09/01 02:59:26;;;;;;;8.13;5.13;;;;;;;-141.97;64.20;47432.59;5032584;28;20564;-82
2023/09/01 03:01:51;;;;;;;11.00;5.30;;;;;;;-141.97;64.04;47471.03;5031292;28;20657;-82
2023/09/01 03:04:17;;;;;;;11.80;5.67;;;;;;;-141.97;64.29;47657.47;5030751;28;20258;-82
2023/09/01 03:06:43;;;;;;;7.97;5.03;;;;;;;-141.97;64.40;47334.56;5032725;28;20245;-82
2023/09/01 03:09:10;;;;;;;9.80;5.20;;;;;;;-141.97;64.37;47449.88;5030703;28;20624;-82
2023/09/01 03:11:35;;;;;;;7.90;5.10;;;;;;;-141.97;64.14;47597.88;5030864;28;20166;-82
2023/09/01 03:14:01;;;;;;;7.57;4.93;;;;;;;-141.97;64.55;47421.06;5031901;28;20288;-81
2023/09/01 03:16:30;;;;;;;8.37;4.90;;;;;;;-141.97;64.49;47490.25;5031715;28;20174;-81
2023/09/01 03:18:59;;;;;;;9.90;4.90;;;;;;;-141.97;64.29;47628.63;5031874;28;20166;-81
2023/09/01 03:21:26;;;;;;;8.70;5.10;;;;;;;-141.97;64.33;47471.03;5031990;28;20162;-81
2023/09/01 03:23:52;;;;;;;7.77;5.47;;;;;;;-141.97;64.90;47484.47;5030571;28;20169;-81
2023/09/01 03:26:19;;;;;;;8.80;5.37;;;;;;;-141.97;64.87;47447.97;5031712;28;20184;-81
2023/09/01 03:28:45;;;;;;;11.40;5.77;;;;;;;-141.97;63.96;47609.41;5030453;28;20231;-81
2023/09/01 03:31:11;;;;;;;7.57;5.00;;;;;;;-141.97;63.68;47369.16;5031290;28;20166;-82
2023/09/01 03:33:36;;;;;;;9.53;4.93;;;;;;;-141.97;62.78;47620.94;5030511;28;20194;-81
2023/09/01 03:36:07;;;;;;;8.97;5.03;;;;;;;-141.97;62.56;47376.84;5030790;28;20546;-81
2023/09/01 03:38:33;;;;;;;10.40;4.90;;;;;;;-141.97;62.11;47330.72;5030769;28;20180;-82
2023/09/01 03:41:01;;;;;;;7.93;4.73;;;;;;;-141.97;61.62;47469.09;5054446;28;20552;-82
2023/09/01 03:43:26;;;;;;;9.40;4.53;;;;;;;-141.97;62.00;47453.72;5029652;28;20317;-82
2023/09/01 03:45:51;;;;;;;8.27;4.60;;;;;;;-141.97;61.94;47436.44;5029528;28;20162;-82
2023/09/01 03:48:17;;;;;;;8.40;4.80;;;;;;;-141.97;61.65;47638.25;5030235;28;20268;-81
2023/09/01 03:50:42;;;;;;;6.87;4.40;;;;;;;-141.97;61.78;47469.09;5031323;28;20178;-81
2023/09/01 03:53:08;;;;;;;8.20;4.80;;;;;;;-141.97;62.02;47390.31;5031191;28;20208;-80
2023/09/01 03:55:33;;;;;;;8.27;4.67;;;;;;;-141.97;62.26;47557.53;5031280;28;20185;-81
2023/09/01 03:58:00;;;;;;;7.37;4.70;;;;;;;-141.97;62.20;47453.72;5029601;28;20168;-82
2023/09/01 04:00:25;;;;;;;8.43;4.77;;;;;;;-141.97;61.96;47469.09;5029386;28;20244;-82
2023/09/01 04:02:51;;;;;;;8.50;4.50;;;;;;;-141.97;62.22;47480.63;5030956;28;20626;-82
2023/09/01 04:05:16;;;;;;;7.60;4.53;;;;;;;-141.97;61.46;47413.38;5030256;28;20200;-81
2023/09/01 04:07:42;;;;;;;8.83;4.70;;;;;;;-141.97;60.93;47482.56;5029545;28;20249;-81
2023/09/01 04:10:08;;;;;;;8.40;4.80;;;;;;;-141.97;60.93;47398.00;5030733;28;20181;-81
2023/09/01 04:12:34;;;;;;;8.40;5.10;;;;;;;-141.97;60.70;47626.72;5034832;28;20170;-81
2023/09/01 04:14:59;;;;;;;7.27;4.50;;;;;;;-141.97;61.43;47367.25;5034240;28;20182;-82
2023/09/01 04:17:26;;;;;;;7.90;4.80;;;;;;;-141.97;62.58;47424.91;5033885;28;20174;-82
2023/09/01 04:19:52;;;;;;;5.80;4.33;;;;;;;-141.97;64.07;47496.00;5034082;28;20185;-82
2023/09/01 04:22:17;;;;;;;8.80;4.67;;;;;;;-141.97;64.16;47488.31;5031162;28;20177;-81
2023/09/01 04:24:43;;;;;;;8.03;4.80;;;;;;;-141.97;64.25;47503.69;5030792;28;20685;-80
2023/09/01 04:27:08;;;;;;;7.87;4.70;;;;;;;-141.97;64.16;47353.78;5031670;28;20265;-82
2023/09/01 04:29:35;;;;;;;7.77;4.73;;;;;;;-141.97;63.87;47574.81;5032849;28;20170;-81
2023/09/01 04:32:01;;;;;;;7.80;4.40;;;;;;;-141.97;63.63;47478.72;5031323;28;20179;-82
2023/09/01 04:34:26;;;;;;;8.10;4.67;;;;;;;-141.97;63.61;47657.47;5029891;28;20288;-81
2023/09/01 04:36:52;;;;;;;12.03;4.77;;;;;;;-141.97;62.92;47463.34;5043944;28;20166;-82
2023/09/01 04:39:17;;;;;;;9.73;4.47;;;;;;;-141.97;62.35;47497.94;5039964;28;20220;-81
2023/09/01 04:41:43;;;;;;;10.43;4.30;;;;;;;-141.97;61.71;47472.94;5031289;28;20224;-82
2023/09/01 04:44:09;;;;;;;7.93;4.23;;;;;;;-141.97;60.58;47326.88;5029678;28;20595;-81
2023/09/01 04:46:34;;;;;;;7.47;4.23;;;;;;;-141.97;59.86;47328.81;5033893;28;20170;-83
2023/09/01 04:48:59;;;;;;;6.93;4.07;;;;;;;-141.97;59.48;47326.88;5033576;28;20178;-82
2023/09/01 04:51:25;;;;;;;7.87;4.50;;;;;;;-141.97;58.81;47547.91;5034710;28;20245;-77
2023/09/01 04:53:50;;;;;;;8.87;4.53;;;;;;;-141.97;58.70;47467.19;5034194;28;20193;-77
2023/09/01 04:56:16;;;;;;;9.37;4.40;;;;;;;-141.97;57.93;47601.72;5033427;28;20174;-77
2023/09/01 04:58:41;;;;;;;11.37;4.60;;;;;;;-141.97;58.15;47519.06;5033736;28;20174;-77
2023/09/01 05:01:06;;;;;;;12.43;5.10;;;;;;;-141.97;58.13;47499.84;5032575;28;20170;-76
2023/09/01 05:03:32;;;;;;;11.63;5.30;;;;;;;-141.97;58.27;47499.84;5033830;28;20216;-75
2023/09/01 05:05:57;;;;;;;7.80;5.20;;;;;;;-141.97;58.34;47449.88;5033611;28;20603;-77
2023/09/01 05:08:22;;;;;;;9.20;5.67;;;;;;;-141.97;58.38;47517.16;5015054;28;20182;-77
2023/09/01 05:10:48;;;;;;;9.33;5.13;;;;;;;-141.97;58.16;47509.47;5014074;28;20603;-77
2023/09/01 05:13:13;;;;;;;9.10;5.17;;;;;;;-141.97;58.14;47469.09;5014113;28;20186;-77
2023/09/01 05:15:39;;;;;;;9.97;5.00;;;;;;;-141.97;57.83;47417.22;5026188;28;20173;-77
2023/09/01 05:18:04;;;;;;;10.37;5.17;;;;;;;-141.97;57.39;47457.56;5031959;28;20179;-79
2023/09/01 05:20:29;;;;;;;7.70;4.43;;;;;;;-141.97;57.38;47476.78;5033504;28;20173;-79
2023/09/01 05:22:55;;;;;;;8.80;4.50;;;;;;;-141.97;56.96;47430.66;5033439;28;20166;-78
2023/09/01 05:25:20;;;;;;;12.93;4.70;;;;;;;-141.97;56.83;47469.09;5033152;28;20196;-78
2023/09/01 05:27:46;;;;;;;7.97;4.47;;;;;;;-141.97;56.45;47497.94;5033410;28;20166;-78
2023/09/01 05:30:13;;;;;;;8.73;4.67;;;;;;;-141.97;56.13;47480.63;5033181;28;20166;-77
2023/09/01 05:32:39;;;;;;;9.17;4.33;;;;;;;-141.97;55.49;47461.41;5031596;28;20166;-77
2023/09/01 05:35:05;;;;;;;7.70;4.90;;;;;;;-141.97;55.24;47482.56;5032616;28;20196;-77
2023/09/01 05:37:30;;;;;;;7.30;4.33;;;;;;;-141.97;55.12;47480.63;5032964;28;20228;-77
2023/09/01 05:39:56;;;;;;;8.70;4.30;;;;;;;-141.97;54.76;47469.09;5031771;28;20173;-77
2023/09/01 05:42:21;;;;;;;6.70;4.70;;;;;;;-141.97;54.80;47465.25;5032737;28;20252;-77
2023/09/01 05:44:47;;;;;;;7.43;4.50;;;;;;;-141.97;54.38;47438.34;5032957;28;20177;-77
2023/09/01 05:47:12;;;;;;;10.13;4.90;;;;;;;-141.97;53.58;47432.59;5033065;28;20174;-78
2023/09/01 05:49:38;;;;;;;9.93;4.83;;;;;;;-141.97;52.94;47480.63;5032923;28;20272;-78
2023/09/01 05:52:03;;;;;;;9.37;4.90;;;;;;;-141.97;52.10;47446.03;5033244;28;20170;-78
2023/09/01 05:54:29;;;;;;;8.90;4.80;;;;;;;-141.97;51.64;47434.50;5033190;28;20189;-80
2023/09/01 05:56:55;;;;;;;6.63;4.43;;;;;;;-141.97;51.10;47472.94;5036079;28;20197;-77
2023/09/01 05:59:20;;;;;;;7.33;4.50;;;;;;;-141.97;50.96;47453.72;5044578;28;20293;-78
2023/09/01 06:01:46;;;;;;;10.93;4.83;;;;;;;-141.97;50.57;47480.63;5042075;28;20185;-78
2023/09/01 06:04:12;;;;;;;7.40;4.40;;;;;;;-141.97;49.84;47461.41;5032180;28;20182;-77
2023/09/01 06:06:38;;;;;;;11.00;4.70;;;;;;;-141.97;49.86;47411.44;5032208;28;20166;-78
2023/09/01 06:09:05;;;;;;;8.33;4.77;;;;;;;-141.97;49.31;47476.78;5032118;28;20253;-79
2023/09/01 06:11:31;;;;;;;9.20;4.83;;;;;;;-141.97;49.32;47465.25;5032615;28;20170;-78
2023/09/01 06:13:57;;;;;;;5.63;4.17;;;;;;;-141.97;48.99;47461.41;5031019;28;20212;-78
2023/09/01 06:16:23;;;;;;;10.43;4.60;;;;;;;-141.97;48.96;47480.63;5023166;28;20654;-79
2023/09/01 06:18:48;;;;;;;6.27;4.80;;;;;;;-141.97;48.49;47461.41;5032512;28;20178;-78
2023/09/01 06:21:20;;;;;;;7.03;5.07;;;;;;;-141.97;48.55;47459.50;5020469;28;20706;-78
2023/09/01 06:23:46;;;;;;;7.83;4.97;;;;;;;-141.97;47.89;47424.91;5031929;28;20173;-78
2023/09/01 06:26:17;;;;;;;7.47;4.50;;;;;;;-141.97;47.28;47488.31;5032000;28;20592;-78
2023/09/01 06:28:43;;;;;;;10.50;4.80;;;;;;;-141.97;47.61;47451.81;5031859;28;20174;-79
2023/09/01 06:31:09;;;;;;;10.13;4.87;;;;;;;-141.97;47.05;47447.97;5031808;28;20162;-79
2023/09/01 06:33:37;;;;;;;6.30;4.93;;;;;;;-141.97;47.08;47442.19;5031430;28;20735;-80
2023/09/01 06:36:04;;;;;;;7.53;5.30;;;;;;;-141.97;46.91;47422.97;5031863;28;20166;-79
2023/09/01 06:38:29;;;;;;;7.43;5.40;;;;;;;-141.97;46.80;47461.41;5031317;28;20530;-79
2023/09/01 06:40:55;;;;;;;9.47;5.53;;;;;;;-141.97;46.00;47405.69;5030811;28;20182;-79
2023/09/01 06:43:20;;;;;;;8.40;5.93;;;;;;;-141.97;45.55;47415.28;5029934;28;20241;-78
2023/09/01 06:45:49;;;;;;;6.47;5.40;;;;;;;-141.97;45.98;47403.75;5030323;28;20174;-79
2023/09/01 06:48:15;;;;;;;8.97;5.70;;;;;;;-141.97;45.80;47442.19;5030806;28;20186;-80
2023/09/01 06:50:40;;;;;;;6.60;5.77;;;;;;;-141.97;45.84;47424.91;5031052;28;20645;-79
2023/09/01 06:53:06;;;;;;;8.57;5.60;;;;;;;-141.97;45.20;47432.59;5029868;28;20275;-79
2023/09/01 06:55:31;;;;;;;7.70;5.50;;;;;;;-141.97;45.20;47446.03;5031550;28;20162;-78
2023/09/01 06:57:57;;;;;;;6.20;5.50;;;;;;;-141.97;44.29;47407.59;5031000;28;20197;-80
2023/09/01 07:00:22;;;;;;;6.77;5.57;;;;;;;-141.97;44.48;47421.06;5031217;28;20530;-78
2023/09/01 07:02:48;;;;;;;9.23;5.77;;;;;;;-141.97;44.26;47432.59;5031367;28;20166;-78
2023/09/01 07:05:16;;;;;;;8.43;5.60;;;;;;;-141.97;44.31;47386.47;5029378;28;20170;-77
2023/09/01 07:07:41;;;;;;;6.97;5.53;;;;;;;-141.97;43.74;47459.50;5030529;28;20197;-77
2023/09/01 07:10:07;;;;;;;6.70;6.00;;;;;;;-141.97;43.82;47442.19;5030201;28;20193;-77
2023/09/01 07:12:32;;;;;;;6.97;5.80;;;;;;;-141.97;43.64;47419.13;5031682;28;20240;-78
2023/09/01 07:14:57;;;;;;;7.90;6.30;;;;;;;-141.97;43.83;47419.13;5031744;28;20213;-78
2023/09/01 07:17:24;;;;;;;7.03;5.40;;;;;;;-141.97;43.82;47421.06;5031521;28;20169;-78
2023/09/01 07:19:49;;;;;;;12.17;6.23;;;;;;;-141.97;43.99;47419.13;5030723;28;20280;-78
2023/09/01 07:22:15;;;;;;;8.67;6.00;;;;;;;-141.97;43.57;47421.06;5031569;28;20650;-78
2023/09/01 07:24:40;;;;;;;10.57;5.70;;;;;;;-141.97;43.08;47426.81;5031213;28;20162;-78
2023/09/01 07:27:06;;;;;;;10.67;5.97;;;;;;;-141.97;42.78;47409.53;5029672;28;20162;-79
2023/09/01 07:29:32;;;;;;;7.10;6.17;;;;;;;-141.97;42.97;47415.28;5030303;28;20171;-78
2023/09/01 07:31:59;;;;;;;9.23;6.07;;;;;;;-141.97;42.48;47396.06;5030858;28;20649;-78
2023/09/01 07:34:28;;;;;;;10.70;7.03;;;;;;;-141.97;41.56;47373.00;5029381;28;20244;-78
2023/09/01 07:36:53;;;;;;;8.90;6.45;;;;;;;-141.97;41.51;47384.53;5030705;28;20686;-78
2023/09/01 07:39:18;;;;;;;8.05;6.90;;;;;;;-141.97;41.37;47384.53;5030596;28;20228;-77
2023/09/01 07:41:44;;;;;;;11.90;9.02;;;;;;;-141.97;41.08;47396.06;5021006;28;20244;-78
2023/09/01 07:44:09;;;;;;;9.65;7.25;;;;;;;-141.97;41.37;47407.59;5028281;28;20190;-79
2023/09/01 07:46:34;;;;;;;9.20;6.82;;;;;;;-141.97;41.34;47398.00;5030429;28;20183;-79
2023/09/01 07:49:00;;;;;;;8.13;6.88;;;;;;;-141.97;40.12;47384.53;5030358;28;20171;-79
2023/09/01 07:51:26;;;;;;;10.68;7.70;;;;;;;-141.97;39.53;47403.75;5030353;28;20587;-79
2023/09/01 07:53:54;;;;;;;7.45;6.55;;;;;;;-141.97;39.66;47309.59;5030826;28;20195;-78
2023/09/01 07:56:19;;;;;;;12.43;9.60;;;;;;;-141.97;39.32;47373.00;5029032;28;20280;-79
2023/09/01 07:58:44;;;;;;;7.65;6.85;;;;;;;-141.97;39.04;47369.16;5029803;28;20252;-77
2023/09/01 08:01:10;;;;;;;9.40;7.32;;;;;;;-141.97;39.32;47292.28;5030471;28;20228;-78
2023/09/01 08:03:35;;;;;;;7.45;6.30;;;;;;;-141.97;39.26;47382.63;5030743;28;20166;-78
2023/09/01 08:06:01;;;;;;;7.50;5.95;;;;;;;-141.97;38.86;47409.53;5029845;28;20165;-78
2023/09/01 08:08:26;;;;;;;7.45;5.80;;;;;;;-141.97;38.78;47373.00;5030696;28;20186;-78
2023/09/01 08:10:52;;;;;;;7.90;6.10;;;;;;;-141.97;37.86;47338.41;5030317;28;20168;-78
2023/09/01 08:13:17;;;;;;;8.80;5.85;;;;;;;-141.97;37.08;47453.72;5028693;28;20280;-78
2023/09/01 08:15:43;;;;;;;7.97;6.20;;;;;;;-141.97;37.49;47334.56;5030438;28;20584;-78
2023/09/01 08:18:08;;;;;;;7.90;5.90;;;;;;;-141.97;37.47;47365.31;5030665;28;20176;-77
2023/09/01 08:20:34;;;;;;;7.78;5.97;;;;;;;-141.97;36.74;47349.94;5037055;28;20162;-77
2023/09/01 08:22:59;;;;;;;6.55;5.70;;;;;;;-141.97;35.90;47326.88;5046170;28;20177;-77
2023/09/01 08:25:25;;;;;;;6.97;5.88;;;;;;;-141.97;36.70;47346.09;5030094;28;20575;-77
2023/09/01 08:27:50;;;;;;;8.85;5.47;;;;;;;-141.97;36.87;47349.94;5030485;28;20205;-77
2023/09/01 08:30:15;;;;;;;6.25;5.43;;;;;;;-141.97;36.73;47342.25;5030255;28;20617;-77
2023/09/01 08:32:42;;;;;;;6.43;5.47;;;;;;;-141.97;36.21;47334.56;5028846;28;20173;-77
2023/09/01 08:35:08;;;;;;;8.50;6.15;;;;;;;-141.97;35.37;47307.66;5029707;28;20163;-77
2023/09/01 08:37:33;;;;;;;6.70;5.47;;;;;;;-141.97;35.39;47342.25;5029482;28;20611;-78
2023/09/01 08:39:59;;;;;;;7.88;5.25;;;;;;;-141.97;35.16;47342.25;5028773;28;20701;-77
2023/09/01 08:42:25;;;;;;;5.75;5.10;;;;;;;-141.97;34.99;47342.25;5020213;28;20268;-77
2023/09/01 08:44:52;;;;;;;7.28;5.55;;;;;;;-141.97;35.00;47311.50;5029806;28;20196;-79
2023/09/01 08:47:22;;;;;;;8.75;5.70;;;;;;;-141.97;35.04;47324.97;5030119;28;20181;-78
2023/09/01 08:49:52;;;;;;;7.95;5.15;;;;;;;-141.97;34.33;47324.97;5028019;28;20188;-78
2023/09/01 08:52:19;;;;;;;5.28;4.78;;;;;;;-141.97;34.69;47319.19;5028306;28;20643;-78
2023/09/01 08:54:46;;;;;;;5.78;5.15;;;;;;;-141.97;34.53;47334.56;5029394;28;20200;-78
2023/09/01 08:57:12;;;;;;;6.30;5.20;;;;;;;-141.97;34.28;47336.50;5028148;28;20187;-79
2023/09/01 08:59:37;;;;;;;6.85;5.07;;;;;;;-141.97;33.83;47328.81;5029462;28;20172;-79
2023/09/01 09:02:07;;;;;;;7.05;5.03;;;;;;;-141.97;33.82;47311.50;5029485;28;20160;-77
2023/09/01 09:04:33;;;;;;;7.18;5.18;;;;;;;-141.97;32.94;47290.38;5029168;28;20640;-78
2023/09/01 09:07:18;;;;;;;7.93;4.60;;;;;;;-141.97;33.51;47286.53;5029880;28;20244;-78
2023/09/01 09:09:52;;;;;;;5.82;5.05;;;;;;;-141.97;33.10;47292.28;5029730;28;20181;-78
2023/09/01 09:12:18;;;;;;;9.80;4.93;;;;;;;-141.97;34.00;47330.72;5029912;28;20235;-78
2023/09/01 09:14:50;;;;;;;6.13;5.00;;;;;;;-141.97;33.96;47323.03;5029726;28;20228;-78
2023/09/01 09:17:15;;;;;;;6.25;5.15;;;;;;;-141.97;33.49;47346.09;5029731;28;20168;-78
2023/09/01 09:19:53;;;;;;;7.90;5.13;;;;;;;-141.97;33.81;47315.34;5028332;28;20177;-80
2023/09/01 09:22:19;;;;;;;6.25;4.68;;;;;;;-141.97;33.45;47332.66;5029679;28;20640;-79
2023/09/01 09:24:45;;;;;;;6.72;4.97;;;;;;;-141.97;33.34;47303.81;5029436;28;20201;-78
2023/09/01 09:27:17;;;;;;;5.55;4.78;;;;;;;-141.97;33.81;47288.44;5029853;28;20173;-78
2023/09/01 09:29:45;;;;;;;5.32;4.82;;;;;;;-141.97;33.03;47288.44;5028975;28;20171;-78
2023/09/01 09:32:20;;;;;;;6.25;4.90;;;;;;;-141.97;32.62;47319.19;5031321;28;20470;-78
2023/09/01 09:35:08;;;;;;;7.18;5.15;;;;;;;-141.97;33.70;47317.28;5031664;28;20203;-78
2023/09/01 09:37:35;;;;;;;5.45;4.95;;;;;;;-141.97;33.90;47369.16;5031491;28;20188;-79
2023/09/01 09:40:14;;;;;;;6.05;4.90;;;;;;;-141.97;32.67;47305.75;5029818;28;20307;-78
2023/09/01 09:42:41;;;;;;;5.90;5.22;;;;;;;-141.97;31.52;47321.13;5023401;28;20236;-77
2023/09/01 09:45:32;;;;;;;7.78;4.72;;;;;;;-141.97;31.20;47305.75;5032842;28;20499;-78
2023/09/01 09:48:00;;;;;;;7.80;5.43;;;;;;;-141.97;31.43;47288.44;5002913;28;20198;-80
2023/09/01 09:50:26;;;;;;;7.20;5.05;;;;;;;-141.97;30.98;47434.50;4989534;28;20198;-79
2023/09/01 09:52:58;;;;;;;6.20;5.03;;;;;;;-141.97;30.83;47311.50;4995729;28;20252;-79
2023/09/01 09:55:33;;;;;;;6.55;4.90;;;;;;;-141.97;30.53;47292.28;5011460;28;20198;-79
2023/09/01 09:58:05;;;;;;;5.70;4.63;;;;;;;-141.97;29.94;47288.44;5011542;28;20220;-80
2023/09/01 10:00:35;;;;;;;5.68;4.47;;;;;;;-141.97;30.19;47303.81;5002235;28;20189;-80
2023/09/01 10:03:03;;;;;;;6.78;5.10;;;;;;;-141.97;30.61;47282.69;4991691;28;20258;-79
2023/09/01 10:05:31;;;;;;;5.60;4.65;;;;;;;-141.97;30.33;47301.91;4991212;28;20274;-78
2023/09/01 10:07:58;;;;;;;8.02;5.35;;;;;;;-141.97;31.01;47251.94;4990749;28;20174;-78
2023/09/01 10:10:24;;;;;;;7.10;4.93;;;;;;;-141.97;30.61;47392.22;4990646;28;20690;-78
2023/09/01 10:12:51;;;;;;;5.38;4.88;;;;;;;-141.97;30.22;47313.44;4990741;28;20209;-78
2023/09/01 10:15:17;;;;;;;15.85;9.20;;;;;;;-141.97;29.98;47253.84;4990298;28;20218;-78
2023/09/01 10:17:46;;;;;;;7.75;5.60;;;;;;;-141.97;30.48;47271.16;4989940;28;20223;-78
2023/09/01 10:20:12;;;;;;;32.60;16.02;;;;;;;-141.97;30.42;47242.31;4989826;28;20188;-78
2023/09/01 10:22:41;;;;;;;8.23;6.05;;;;;;;-141.97;30.69;47276.91;4990486;28;20652;-78
2023/09/01 10:25:18;;;;;;;9.20;5.50;;;;;;;-141.97;30.37;47278.84;5002739;28;20277;-78
2023/09/01 10:28:02;;;;;;;6.00;5.07;;;;;;;-141.97;30.05;47292.28;5012101;28;20179;-78
2023/09/01 10:30:33;;;;;;;5.53;4.90;;;;;;;-141.97;29.59;47273.06;5019513;28;20253;-78
2023/09/01 10:33:06;;;;;;;5.80;5.15;;;;;;;-141.97;30.38;47303.81;5031689;28;20182;-78
2023/09/01 10:35:51;;;;;;;5.78;4.97;;;;;;;-141.97;29.94;47265.38;5031724;28;20445;-78
2023/09/01 10:38:17;;;;;;;5.95;5.35;;;;;;;-141.97;29.98;47307.66;5035349;28;20150;-80
2023/09/01 10:40:47;;;;;;;5.32;4.82;;;;;;;-141.97;29.64;47253.84;5035903;28;20170;-80
2023/09/01 10:43:33;;;;;;;6.35;4.68;;;;;;;-141.97;29.77;47298.06;5025386;28;20553;-78
2023/09/01 10:46:16;;;;;;;8.20;5.15;;;;;;;-141.97;29.36;47253.84;5035691;28;20176;-79
2023/09/01 10:48:52;;;;;;;10.27;5.20;;;;;;;-141.97;28.91;47271.16;5032182;28;20190;-80
2023/09/01 10:51:22;;;;;;;7.35;5.35;;;;;;;-141.97;29.16;47251.94;5031284;28;20192;-79
2023/09/01 10:53:59;;;;;;;5.75;5.15;;;;;;;-141.97;28.32;47251.94;5031143;28;20609;-78
2023/09/01 10:56:26;;;;;;;7.03;4.97;;;;;;;-141.97;28.50;47524.84;5031782;28;20192;-78
2023/09/01 10:58:56;;;;;;;8.35;4.93;;;;;;;-141.97;28.37;47269.22;5034369;28;20518;-80
2023/09/01 11:01:38;;;;;;;5.40;4.53;;;;;;;-141.97;28.21;47580.59;5032162;28;20216;-80
2023/09/01 11:04:21;;;;;;;6.07;4.40;;;;;;;-141.97;28.23;47244.25;5032011;28;20165;-78
2023/09/01 11:07:08;;;;;;;5.90;4.68;;;;;;;-141.97;27.80;47265.38;5031873;28;20580;-80
2023/09/01 11:09:33;;;;;;;6.70;4.97;;;;;;;-141.97;28.43;47242.31;5032614;28;20174;-79
2023/09/01 11:12:02;;;;;;;5.30;4.78;;;;;;;-141.97;28.60;47226.94;5031242;28;20196;-79
2023/09/01 11:14:28;;;;;;;4.95;4.45;;;;;;;-141.97;28.63;47284.59;5031705;28;20205;-80
2023/09/01 11:16:53;;;;;;;4.80;4.40;;;;;;;-141.97;28.25;47244.25;5031545;28;20167;-80
2023/09/01 11:19:18;;;;;;;6.45;4.63;;;;;;;-141.97;28.12;47271.16;5031758;28;20296;-80